Time;durP1;ratioP1;P1;durP2;ratioP2;P2;SDS_P1;SDS_P2;PMS_P1;PMS_P2;Temp;Humidity;BMP_temperature;BMP_pressure;BME280_temperature;BME280_humidity;BME280_pressure;Samples;Min_cycle;Max_cycle;Signal;HPM_P1;HPM_P2
2023/06/24 04:31:31;;;;;;;;;4.25;4.25;;;;;31.23;33.51;102084.50;5054028;27;45563;-77
2023/06/24 04:33:56;;;;;;;;;8.00;4.75;;;;;31.23;33.79;102096.44;5052797;28;45587;-79
2023/06/24 04:36:22;;;;;;;;;6.00;5.25;;;;;31.13;33.70;102076.38;5062073;28;59863;-79
2023/06/24 04:38:47;;;;;;;;;5.50;4.00;;;;;31.13;33.20;102085.56;5054273;28;44733;-79
2023/06/24 04:41:13;;;;;;;;;4.75;4.75;;;;;31.09;33.75;102081.38;5034740;28;45320;-79
2023/06/24 04:43:38;;;;;;;;;5.25;5.25;;;;;31.14;33.60;102086.38;5067480;28;45205;-80
2023/06/24 04:46:03;;;;;;;;;3.50;2.75;;;;;31.19;33.46;102089.53;5056147;28;45587;-80
2023/06/24 04:48:28;;;;;;;;;5.00;4.00;;;;;31.10;33.33;102073.94;5055375;28;45346;-80
2023/06/24 04:50:54;;;;;;;;;3.50;3.50;;;;;31.13;33.26;102077.25;5043115;28;45346;-79
2023/06/24 04:53:20;;;;;;;;;4.00;4.00;;;;;31.24;33.39;102089.88;5040025;28;45870;-79
2023/06/24 04:55:46;;;;;;;;;4.00;4.00;;;;;31.27;33.59;102088.66;5040063;28;45546;-79
2023/06/24 04:58:11;;;;;;;;;3.00;3.00;;;;;31.24;33.13;102094.53;5040868;28;45146;-80
2023/06/24 05:00:36;;;;;;;;;4.25;4.25;;;;;31.26;33.11;102086.94;5028562;28;45237;-80
2023/06/24 05:03:02;;;;;;;;;4.75;3.75;;;;;31.20;33.39;102071.88;5061407;28;47723;-80
2023/06/24 05:05:27;;;;;;;;;5.75;5.25;;;;;31.29;33.92;102093.00;5054139;28;46397;-77
2023/06/24 05:07:52;;;;;;;;;5.50;4.50;;;;;31.39;33.41;102098.38;5049466;28;45322;-80
2023/06/24 05:10:18;;;;;;;;;4.50;2.75;;;;;31.41;33.13;102088.81;5041377;28;45265;-79
2023/06/24 05:12:43;;;;;;;;;7.00;6.00;;;;;31.39;32.86;102077.03;5041180;28;45518;-78
2023/06/24 05:15:09;;;;;;;;;5.25;4.00;;;;;31.40;33.07;102089.88;5045498;28;49101;-79
2023/06/24 05:17:34;;;;;;;;;6.00;6.00;;;;;31.49;32.93;102088.81;5040736;28;45407;-77
2023/06/24 05:20:00;;;;;;;;;3.50;3.50;;;;;31.44;33.48;102082.06;5035824;28;45510;-78
2023/06/24 05:22:25;;;;;;;;;4.00;3.50;;;;;31.40;32.83;102087.09;5017411;28;45424;-82
2023/06/24 05:24:51;;;;;;;;;6.00;3.75;;;;;31.52;33.40;102093.16;5036000;28;46171;-79
2023/06/24 05:27:17;;;;;;;;;6.00;4.75;;;;;31.53;32.85;102094.91;5036961;28;45332;-75
2023/06/24 05:29:43;;;;;;;;;6.00;6.00;;;;;31.52;32.96;102091.25;5036553;28;45384;-76
2023/06/24 05:32:08;;;;;;;;;5.75;4.25;;;;;31.61;32.71;102092.09;5041290;28;45478;-74
2023/06/24 05:34:34;;;;;;;;;5.00;5.00;;;;;31.67;32.56;102090.56;5046472;28;46002;-74
2023/06/24 05:37:00;;;;;;;;;7.25;5.00;;;;;31.65;32.56;102084.31;5051719;28;45374;-77
2023/06/24 05:39:25;;;;;;;;;2.75;2.75;;;;;31.69;32.58;102096.81;5039028;28;45385;-74
2023/06/24 05:41:50;;;;;;;;;4.50;3.25;;;;;31.73;32.20;102099.03;5035876;28;45382;-74
2023/06/24 05:44:17;;;;;;;;;5.00;4.00;;;;;31.74;32.45;102098.00;5036333;28;46429;-75
2023/06/24 05:46:44;;;;;;;;;7.50;4.50;;;;;31.67;31.08;102094.19;5046865;28;45191;-76
2023/06/24 05:49:09;;;;;;;;;5.50;4.75;;;;;31.68;31.21;102097.84;5038323;28;45324;-73
2023/06/24 05:51:34;;;;;;;;;3.75;2.75;;;;;31.64;31.40;102091.81;5035593;28;54399;-74
2023/06/24 05:53:59;;;;;;;;;4.75;4.75;;;;;31.68;31.55;102095.94;5017994;28;47712;-74
2023/06/24 05:56:25;;;;;;;;;5.25;5.25;;;;;31.76;31.73;102093.16;5046596;28;45356;-74
2023/06/24 05:58:51;;;;;;;;;6.00;5.00;;;;;31.89;31.67;102098.16;5038742;28;45325;-74
2023/06/24 06:01:16;;;;;;;;;5.50;4.75;;;;;31.89;31.67;102093.50;5035287;28;46091;-75
2023/06/24 06:03:42;;;;;;;;;5.00;3.00;;;;;31.90;32.02;102097.13;5035813;28;47360;-73
2023/06/24 06:06:08;;;;;;;;;6.00;4.50;;;;;31.97;32.29;102092.59;5053019;28;45490;-74
2023/06/24 06:08:33;;;;;;;;;4.00;4.00;;;;;32.03;31.88;102094.66;5039031;28;45375;-74
2023/06/24 06:11:02;;;;;;;;;4.00;4.00;;;;;32.12;31.22;102089.94;5028083;28;45474;-73
2023/06/24 06:13:27;;;;;;;;;3.00;3.00;;;;;32.11;31.87;102093.75;5038642;28;46235;-74
2023/06/24 06:15:52;;;;;;;;;5.25;4.00;;;;;32.12;31.10;102096.34;5036261;28;45351;-74
2023/06/24 06:18:18;;;;;;;;;4.00;4.00;;;;;32.17;31.39;102087.50;5035230;28;45344;-75
2023/06/24 06:20:43;;;;;;;;;5.00;4.50;;;;;32.18;31.62;102087.34;5035634;28;45499;-74
2023/06/24 06:23:08;;;;;;;;;5.00;3.00;;;;;32.30;31.69;102096.16;5034791;28;56676;-75
2023/06/24 06:25:33;;;;;;;;;4.50;4.50;;;;;32.31;30.94;102097.88;5035374;28;45319;-73
2023/06/24 06:27:59;;;;;;;;;3.00;3.00;;;;;32.27;31.10;102089.03;5035656;28;45269;-75
2023/06/24 06:30:24;;;;;;;;;3.25;3.25;;;;;32.24;31.56;102081.06;5037813;28;45451;-83
2023/06/24 06:32:50;;;;;;;;;4.00;4.00;;;;;32.28;31.21;102068.56;5054895;28;46296;-84
2023/06/24 06:35:15;;;;;;;;;5.25;5.25;;;;;32.41;30.99;102087.41;5055964;28;45337;-85
2023/06/24 06:37:40;;;;;;;;;3.00;3.00;;;;;32.47;31.16;102089.47;5055757;28;45430;-87
2023/06/24 06:40:07;;;;;;;;;3.75;3.75;;;;;32.47;30.77;102083.06;5056327;28;45433;-82
2023/06/24 06:42:32;;;;;;;;;6.00;6.00;;;;;32.39;30.99;102078.41;5055487;28;46440;-84
2023/06/24 06:44:57;;;;;;;;;7.25;6.50;;;;;32.51;31.30;102076.94;5055389;28;45374;-85
2023/06/24 06:47:23;;;;;;;;;4.00;4.00;;;;;32.53;31.17;102080.41;5055401;28;45303;-86
2023/06/24 06:49:48;;;;;;;;;8.50;5.50;;;;;32.59;30.85;102084.38;5055687;28;45434;-84
2023/06/24 06:52:14;;;;;;;;;9.50;6.75;;;;;32.62;30.58;102093.22;5055377;28;46194;-86
2023/06/24 06:54:39;;;;;;;;;5.00;4.50;;;;;32.71;30.57;102091.28;5053421;28;45488;-86
2023/06/24 06:57:05;;;;;;;;;6.25;6.25;;;;;32.72;30.38;102094.94;5054537;28;45474;-83
2023/06/24 06:59:31;;;;;;;;;5.25;4.25;;;;;32.77;30.50;102087.75;5036822;28;46170;-84
2023/06/24 07:01:57;;;;;;;;;4.00;4.00;;;;;32.68;29.90;102069.38;5055274;28;46283;-83
2023/06/24 07:04:22;;;;;;;;;4.50;3.25;;;;;32.65;30.24;102069.78;5037020;28;45315;-86
2023/06/24 07:06:47;;;;;;;;;4.75;4.75;;;;;32.80;30.47;102083.75;5055404;28;46191;-85
2023/06/24 07:09:13;;;;;;;;;7.25;5.00;;;;;32.67;30.34;102067.66;5035983;28;47027;-84
2023/06/24 07:11:39;;;;;;;;;4.75;4.00;;;;;32.72;29.67;102090.25;5053457;28;45431;-84
2023/06/24 07:14:04;;;;;;;;;4.00;4.00;;;;;32.67;30.24;102062.97;5054476;28;45366;-84
2023/06/24 07:16:29;;;;;;;;;3.00;3.00;;;;;32.78;30.20;102074.75;5036888;28;45485;-83
2023/06/24 07:18:55;;;;;;;;;7.50;5.00;;;;;32.87;30.11;102080.06;5055077;28;45631;-83
2023/06/24 07:21:20;;;;;;;;;4.25;4.25;;;;;32.83;29.86;102075.94;5052643;28;45413;-83
2023/06/24 07:23:46;;;;;;;;;5.25;4.25;;;;;32.85;29.80;102078.50;5043408;28;45673;-78
2023/06/24 07:26:11;;;;;;;;;4.75;4.75;;;;;32.84;29.28;102074.88;5054683;28;45402;-78
2023/06/24 07:28:37;;;;;;;;;4.50;4.50;;;;;32.92;29.18;102085.91;5054835;28;45619;-81
2023/06/24 07:31:02;;;;;;;;;3.00;3.00;;;;;32.97;29.35;102077.03;5037475;28;47999;-79
2023/06/24 07:33:30;;;;;;;;;8.25;3.50;;;;;32.97;29.70;102079.81;5054822;28;45370;-78
2023/06/24 07:35:55;;;;;;;;;4.25;3.75;;;;;32.95;29.22;102074.44;5054935;28;45482;-79
2023/06/24 07:38:21;;;;;;;;;5.50;4.00;;;;;32.95;29.12;102073.59;5054917;28;45484;-76
2023/06/24 07:40:46;;;;;;;;;5.75;4.75;;;;;33.00;29.66;102077.56;5054533;28;46128;-79
2023/06/24 07:43:11;;;;;;;;;4.00;4.00;;;;;33.03;29.91;102074.38;5036542;28;45417;-77
2023/06/24 07:45:37;;;;;;;;;3.00;3.00;;;;;33.07;29.46;102086.00;5058247;28;45473;-77
2023/06/24 07:48:02;;;;;;;;;3.75;3.75;;;;;33.09;29.58;102083.91;5055019;28;45217;-82
2023/06/24 07:50:28;;;;;;;;;3.00;3.00;;;;;33.12;29.58;102086.31;5055344;28;46539;-80
2023/06/24 07:52:53;;;;;;;;;7.75;5.75;;;;;33.16;29.46;102079.34;5019303;28;45324;-79
2023/06/24 07:55:18;;;;;;;;;4.00;4.00;;;;;33.24;29.74;102084.00;5054573;28;45765;-76
2023/06/24 07:57:47;;;;;;;;;4.00;4.00;;;;;33.23;28.84;102074.78;5054970;28;45505;-82
2023/06/24 08:00:14;;;;;;;;;4.25;3.75;;;;;33.26;29.16;102068.84;5053056;28;45923;-81
2023/06/24 08:02:40;;;;;;;;;4.75;4.75;;;;;33.19;28.74;102067.81;5054118;28;45355;-77
2023/06/24 08:05:06;;;;;;;;;5.50;4.50;;;;;33.28;29.12;102077.00;5053596;28;45400;-78
2023/06/24 08:07:31;;;;;;;;;6.00;5.00;;;;;33.34;28.74;102077.13;5053904;28;45464;-79
2023/06/24 08:09:56;;;;;;;;;4.75;4.00;;;;;33.35;29.48;102069.63;5054029;28;45319;-78
2023/06/24 08:12:22;;;;;;;;;5.00;5.00;;;;;33.36;28.78;102069.44;5054436;28;45245;-80
2023/06/24 08:14:47;;;;;;;;;5.75;5.75;;;;;33.44;29.29;102072.16;5054190;28;45308;-80
2023/06/24 08:17:12;;;;;;;;;4.00;3.00;;;;;33.45;29.15;102064.69;5054096;28;45561;-77
2023/06/24 08:19:38;;;;;;;;;4.50;4.00;;;;;33.55;28.92;102065.28;5052230;28;46283;-79
2023/06/24 08:22:04;;;;;;;;;4.50;4.00;;;;;33.53;28.37;102059.03;5053218;28;49975;-78
2023/06/24 08:24:29;;;;;;;;;5.50;5.50;;;;;33.72;28.86;102071.53;5053939;28;45367;-78
2023/06/24 08:26:55;;;;;;;;;5.75;4.25;;;;;33.72;28.81;102065.97;5052297;28;46262;-79
2023/06/24 08:29:20;;;;;;;;;5.00;3.75;;;;;33.69;28.83;102066.34;5053324;28;51132;-80
2023/06/24 08:31:45;;;;;;;;;5.50;5.00;;;;;33.78;28.95;102066.09;5035502;28;45336;-79
2023/06/24 08:34:10;;;;;;;;;4.50;4.00;;;;;33.78;28.53;102051.31;5053748;28;45417;-79
2023/06/24 08:36:37;;;;;;;;;6.25;4.50;;;;;33.88;28.56;102068.59;5053772;28;45348;-79
2023/06/24 08:39:02;;;;;;;;;4.75;3.25;;;;;33.79;28.36;102045.56;5053191;28;45999;-76
2023/06/24 08:41:28;;;;;;;;;5.00;5.00;;;;;33.97;28.45;102055.47;5054125;28;45414;-78
2023/06/24 08:43:54;;;;;;;;;6.00;4.75;;;;;34.01;28.58;102054.91;5036024;28;45426;-81
2023/06/24 08:46:21;;;;;;;;;4.75;4.75;;;;;34.04;28.09;102048.06;5053834;28;45769;-79
2023/06/24 08:48:48;;;;;;;;;6.00;6.00;;;;;33.99;28.68;102029.16;5053856;28;46239;-80
2023/06/24 08:51:20;;;;;;;;;5.25;5.25;;;;;34.05;28.52;102050.66;5054177;28;45340;-83
2023/06/24 08:53:47;;;;;;;;;5.25;5.25;;;;;33.97;29.20;102030.41;5035434;28;45653;-79
2023/06/24 08:56:14;;;;;;;;;4.75;4.75;;;;;34.09;28.96;102046.44;5053707;28;45527;-78
2023/06/24 08:58:40;;;;;;;;;5.25;4.00;;;;;34.06;28.93;102044.03;5057101;28;46325;-79
2023/06/24 09:01:07;;;;;;;;;10.25;4.00;;;;;34.14;28.58;102027.22;5057908;28;45465;-84
2023/06/24 09:03:32;;;;;;;;;7.50;6.00;;;;;34.15;29.05;102031.75;5057260;28;45537;-80
2023/06/24 09:05:57;;;;;;;;;6.00;5.00;;;;;34.18;28.91;102033.28;5056947;28;45379;-77
2023/06/24 09:08:23;;;;;;;;;5.25;4.25;;;;;34.22;28.72;102034.59;5056305;28;51201;-81
2023/06/24 09:10:56;;;;;;;;;7.00;6.00;;;;;34.18;28.89;102028.59;5058170;28;45340;-81
2023/06/24 09:13:33;;;;;;;;;5.75;4.75;;;;;34.12;28.86;102020.97;5039427;28;45357;-81
2023/06/24 09:15:58;;;;;;;;;5.25;5.25;;;;;34.18;29.37;102022.16;5057081;28;45406;-82
2023/06/24 09:18:31;;;;;;;;;6.25;4.25;;;;;34.23;29.52;102027.97;5056488;28;45383;-79
2023/06/24 09:20:56;;;;;;;;;6.75;5.75;;;;;34.26;29.46;102015.63;5057027;28;45505;-81
2023/06/24 09:23:26;;;;;;;;;7.75;6.00;;;;;34.31;29.13;102004.75;5056234;28;45324;-81
2023/06/24 09:26:00;;;;;;;;;6.50;5.50;;;;;34.38;29.38;102009.34;5055243;28;45407;-82
2023/06/24 09:28:27;;;;;;;;;6.00;6.00;;;;;34.33;29.07;102011.88;5038060;28;47196;-80
2023/06/24 09:31:08;;;;;;;;;6.25;6.25;;;;;34.35;29.28;102004.19;5056189;28;45347;-80
2023/06/24 09:33:34;;;;;;;;;5.00;5.00;;;;;34.42;29.16;102016.28;5038618;28;45347;-79
2023/06/24 09:36:03;;;;;;;;;5.00;5.00;;;;;34.45;29.52;102010.28;5056772;28;45315;-78
2023/06/24 09:38:37;;;;;;;;;9.00;7.00;;;;;34.52;29.02;101994.53;5055084;28;45433;-80
2023/06/24 09:41:06;;;;;;;;;7.00;6.00;;;;;34.54;29.11;101997.97;5056269;28;45445;-82
2023/06/24 09:43:36;;;;;;;;;8.25;7.50;;;;;34.58;28.90;101994.78;5056105;28;45495;-82
2023/06/24 09:46:02;;;;;;;;;6.00;5.50;;;;;34.47;28.69;101979.47;5056175;28;45557;-81
2023/06/24 09:48:28;;;;;;;;;8.00;8.00;;;;;34.50;28.91;101984.66;5056258;28;45489;-83
2023/06/24 09:51:03;;;;;;;;;6.50;6.00;;;;;34.46;29.30;101973.03;5055256;28;45385;-79
2023/06/24 09:53:34;;;;;;;;;6.00;6.00;;;;;34.56;28.41;101989.41;5035739;28;45427;-77
2023/06/24 09:56:01;;;;;;;;;8.50;6.75;;;;;34.53;29.08;101982.34;5043760;28;45548;-78
2023/06/24 09:58:31;;;;;;;;;5.50;3.00;;;;;34.59;28.96;101986.25;5038184;28;46610;-78
2023/06/24 10:01:00;;;;;;;;;5.00;4.75;;;;;34.65;28.85;101979.88;5056346;28;45453;-79
2023/06/24 10:03:26;;;;;;;;;6.25;6.00;;;;;34.75;28.33;101982.38;5055743;28;47099;-82
2023/06/24 10:05:51;;;;;;;;;7.25;6.25;;;;;34.71;29.15;101956.78;5037662;28;45388;-81
2023/06/24 10:08:18;;;;;;;;;5.00;5.00;;;;;34.84;28.99;101968.09;5056259;28;45953;-81
2023/06/24 10:10:43;;;;;;;;;5.75;5.75;;;;;34.86;28.70;101967.91;5056458;28;45333;-77
2023/06/24 10:13:09;;;;;;;;;6.50;6.50;;;;;34.96;28.67;101959.22;5053968;28;45392;-77
2023/06/24 10:15:37;;;;;;;;;5.00;5.00;;;;;35.01;28.57;101962.25;5056214;28;45454;-77
2023/06/24 10:18:03;;;;;;;;;6.75;6.75;;;;;35.06;28.67;101954.97;5056008;28;45340;-71
2023/06/24 10:20:38;;;;;;;;;9.75;7.25;;;;;34.99;28.50;101948.50;5056009;28;45418;-75
2023/06/24 10:23:06;;;;;;;;;7.75;6.50;;;;;35.07;28.43;101955.84;5055769;28;45347;-72
2023/06/24 10:25:37;;;;;;;;;8.00;5.50;;;;;35.09;28.60;101943.44;5055529;28;45536;-75
2023/06/24 10:28:03;;;;;;;;;6.00;4.75;;;;;35.02;28.39;101950.03;5055496;28;45521;-74
2023/06/24 10:30:29;;;;;;;;;9.00;6.00;;;;;35.09;28.61;101949.03;5055107;28;45402;-75
2023/06/24 10:32:54;;;;;;;;;6.50;6.50;;;;;35.12;28.63;101936.59;5055709;28;45405;-76
2023/06/24 10:35:29;;;;;;;;;6.00;6.00;;;;;35.13;28.48;101936.38;5055673;28;45391;-79
2023/06/24 10:37:59;;;;;;;;;6.00;5.50;;;;;35.17;28.63;101936.84;5055153;28;46375;-77
2023/06/24 10:40:39;;;;;;;;;11.75;8.00;;;;;35.19;28.26;101927.22;5055527;28;45453;-80
2023/06/24 10:43:23;;;;;;;;;6.00;6.00;;;;;35.19;28.39;101927.22;5037361;28;45344;-80
2023/06/24 10:45:52;;;;;;;;;9.25;7.50;;;;;35.24;28.02;101930.28;5055262;28;45625;-75
2023/06/24 10:48:21;;;;;;;;;11.50;10.25;;;;;35.28;27.82;101920.47;5037174;28;47304;-76
2023/06/24 10:50:47;;;;;;;;;8.00;7.00;;;;;35.35;28.25;101920.50;5055518;28;45509;-78
2023/06/24 10:53:13;;;;;;;;;6.50;6.50;;;;;35.39;27.89;101918.16;5037004;28;45359;-77
2023/06/24 10:55:39;;;;;;;;;8.00;6.75;;;;;35.33;27.88;101911.47;5055014;28;45339;-79
2023/06/24 10:58:12;;;;;;;;;9.25;7.00;;;;;35.41;27.56;101913.22;5055058;28;45337;-80
2023/06/24 11:00:37;;;;;;;;;10.00;7.00;;;;;35.31;27.53;101910.81;5036793;28;45459;-76
2023/06/24 11:03:15;;;;;;;;;7.25;7.00;;;;;35.47;28.07;101910.50;5055192;28;45341;-79
2023/06/24 11:05:41;;;;;;;;;10.00;9.75;;;;;35.52;27.97;101899.56;5055254;28;45260;-77
2023/06/24 11:08:07;;;;;;;;;9.00;7.00;;;;;35.50;27.33;101896.13;5054334;28;46400;-74
2023/06/24 11:10:33;;;;;;;;;6.75;6.75;;;;;35.61;28.04;101901.13;5055162;28;45450;-74
2023/06/24 11:13:05;;;;;;;;;7.75;7.75;;;;;35.65;27.29;101899.63;5054895;28;45340;-75
2023/06/24 11:15:32;;;;;;;;;7.00;7.00;;;;;35.66;27.33;101892.13;5055125;28;45900;-76
2023/06/24 11:17:57;;;;;;;;;7.25;6.25;;;;;35.71;27.48;101900.75;5053692;28;45407;-76
2023/06/24 11:20:23;;;;;;;;;13.00;8.75;;;;;35.71;27.11;101886.78;5036477;28;45347;-77
2023/06/24 11:22:48;;;;;;;;;8.00;8.00;;;;;35.61;26.92;101889.97;5036186;28;45453;-74
2023/06/24 11:25:21;;;;;;;;;8.00;7.00;;;;;35.79;27.52;101885.78;5054772;28;45520;-78
2023/06/24 11:27:47;;;;;;;;;8.75;8.75;;;;;35.78;26.95;101881.25;5054626;28;45542;-78
2023/06/24 11:30:13;;;;;;;;;6.25;6.00;;;;;35.93;26.74;101876.38;5054701;28;45342;-77
2023/06/24 11:32:41;;;;;;;;;8.00;7.75;;;;;36.01;26.94;101878.97;5051727;28;45412;-79
2023/06/24 11:35:09;;;;;;;;;7.00;7.00;;;;;36.08;26.73;101867.81;5051412;28;45277;-78
2023/06/24 11:37:35;;;;;;;;;8.25;7.50;;;;;36.06;26.36;101869.97;5052895;28;46117;-76
2023/06/24 11:40:05;;;;;;;;;9.50;7.00;;;;;36.16;26.53;101864.81;5054726;28;45378;-77
2023/06/24 11:42:32;;;;;;;;;7.00;7.00;;;;;36.29;26.53;101862.09;5054748;28;45416;-75
2023/06/24 11:45:02;;;;;;;;;9.25;7.25;;;;;36.32;26.40;101867.28;5054413;28;45506;-76
2023/06/24 11:47:33;;;;;;;;;6.25;6.00;;;;;36.29;26.19;101850.94;5054245;28;45463;-77
2023/06/24 11:49:58;;;;;;;;;8.00;7.00;;;;;36.36;26.28;101843.41;5054533;28;45593;-78
2023/06/24 11:52:35;;;;;;;;;8.25;7.00;;;;;36.37;26.49;101847.94;5054028;28;45268;-77
2023/06/24 11:55:01;;;;;;;;;8.75;8.75;;;;;36.32;27.06;101845.78;5036291;28;47123;-77
2023/06/24 11:57:58;;;;;;;;;7.75;7.75;;;;;36.32;27.21;101848.59;5054197;28;45409;-76
2023/06/24 12:00:27;;;;;;;;;9.00;8.00;;;;;36.24;26.48;101834.81;5054073;28;45287;-74
2023/06/24 12:02:54;;;;;;;;;9.25;7.25;;;;;36.26;26.61;101832.66;5053454;28;45487;-76
2023/06/24 12:05:25;;;;;;;;;10.00;8.25;;;;;36.35;26.82;101833.31;5053455;28;45550;-77
2023/06/24 12:07:54;;;;;;;;;9.00;8.75;;;;;36.38;26.63;101833.75;5053390;28;46271;-77
2023/06/24 12:10:19;;;;;;;;;10.50;9.75;;;;;36.42;26.46;101828.59;5053947;28;45452;-79
2023/06/24 12:12:44;;;;;;;;;7.75;7.75;;;;;36.48;26.06;101824.09;5048203;28;45439;-75
2023/06/24 12:15:10;;;;;;;;;12.00;10.25;;;;;36.56;26.40;101821.09;5053706;28;51382;-75
2023/06/24 12:17:35;;;;;;;;;8.25;8.25;;;;;36.62;26.33;101821.06;5053774;28;45673;-77
2023/06/24 12:20:00;;;;;;;;;8.75;8.00;;;;;36.67;26.17;101812.06;5053659;28;45502;-77
2023/06/24 12:22:27;;;;;;;;;11.00;8.75;;;;;36.63;25.72;101806.03;5045846;28;45387;-76
2023/06/24 12:24:52;;;;;;;;;6.00;6.00;;;;;36.66;25.96;101794.44;5052288;28;45593;-76
2023/06/24 12:27:17;;;;;;;;;5.00;5.00;;;;;36.78;25.86;101796.56;5050385;28;52392;-73
2023/06/24 12:29:42;;;;;;;;;7.50;7.50;;;;;36.80;25.92;101789.69;5055999;28;45482;-79
2023/06/24 12:32:08;;;;;;;;;8.00;7.00;;;;;36.87;26.00;101798.06;5057271;28;45368;-78
2023/06/24 12:34:33;;;;;;;;;7.50;7.50;;;;;36.91;25.70;101802.16;5056920;28;45473;-75
2023/06/24 12:36:59;;;;;;;;;7.00;5.75;;;;;36.92;25.63;101787.94;5057351;28;50509;-77
2023/06/24 12:39:24;;;;;;;;;11.25;8.25;;;;;36.99;25.33;101791.59;5055571;28;45324;-79
2023/06/24 12:41:49;;;;;;;;;12.50;8.50;;;;;37.04;25.78;101783.41;5057695;28;45253;-78
2023/06/24 12:44:15;;;;;;;;;7.00;6.50;;;;;37.16;25.33;101785.56;5057370;28;48918;-76
2023/06/24 12:46:40;;;;;;;;;10.50;7.50;;;;;37.15;25.75;101773.50;5057180;28;45262;-76
2023/06/24 12:49:05;;;;;;;;;10.00;10.00;;;;;37.24;25.78;101768.53;5057308;28;45326;-76
2023/06/24 12:51:31;;;;;;;;;9.75;9.00;;;;;37.36;25.32;101769.53;5057337;28;45517;-78
2023/06/24 12:53:56;;;;;;;;;9.25;7.00;;;;;37.40;24.69;101777.28;5056869;28;53303;-74
2023/06/24 12:56:21;;;;;;;;;7.25;7.25;;;;;37.46;25.05;101769.94;5057076;28;48103;-78
2023/06/24 12:58:47;;;;;;;;;7.25;7.25;;;;;37.48;25.21;101767.78;5057024;28;45287;-75
2023/06/24 13:01:12;;;;;;;;;11.50;11.25;;;;;37.55;25.09;101767.72;5055632;28;45407;-78
2023/06/24 13:03:37;;;;;;;;;11.25;8.25;;;;;37.68;24.90;101767.72;5057058;28;45609;-76
2023/06/24 13:06:03;;;;;;;;;9.25;9.25;;;;;37.78;24.43;101763.31;5056280;28;55296;-74
2023/06/24 13:08:28;;;;;;;;;11.50;10.25;;;;;37.84;24.60;101765.22;5056423;28;45430;-75
2023/06/24 13:10:53;;;;;;;;;10.00;10.00;;;;;37.87;24.10;101777.91;5057224;28;45391;-74
2023/06/24 13:13:19;;;;;;;;;10.25;8.00;;;;;37.92;24.12;101763.22;5056502;28;51326;-75
2023/06/24 13:15:44;;;;;;;;;10.75;8.25;;;;;37.94;23.86;101761.91;5030265;28;47553;-76
2023/06/24 13:18:09;;;;;;;;;8.25;8.25;;;;;37.93;24.13;101760.22;5053798;28;45276;-77
2023/06/24 13:20:35;;;;;;;;;8.75;8.00;;;;;37.98;24.09;101751.13;5054633;28;45374;-75
2023/06/24 13:23:00;;;;;;;;;6.25;6.00;;;;;38.05;23.44;101755.63;5056422;28;45513;-76
2023/06/24 13:25:25;;;;;;;;;10.00;9.00;;;;;38.18;24.05;101752.72;5056471;28;46205;-75
2023/06/24 13:27:52;;;;;;;;;6.75;6.75;;;;;38.27;23.71;101753.28;5056592;28;46676;-76
2023/06/24 13:30:17;;;;;;;;;10.00;8.50;;;;;38.43;23.63;101746.25;5056697;28;45284;-76
2023/06/24 13:32:43;;;;;;;;;11.75;8.00;;;;;38.63;23.97;101746.06;5056465;28;45407;-76
2023/06/24 13:35:08;;;;;;;;;8.25;7.25;;;;;38.71;23.46;101735.41;5056379;28;46319;-76
2023/06/24 13:37:34;;;;;;;;;8.50;8.00;;;;;38.83;23.57;101739.16;5056362;28;45233;-76
2023/06/24 13:39:59;;;;;;;;;12.00;8.00;;;;;39.00;23.38;101733.81;5056063;28;45608;-76
2023/06/24 13:42:25;;;;;;;;;11.00;9.25;;;;;39.09;22.99;101737.16;5056388;28;50767;-77
2023/06/24 13:44:51;;;;;;;;;8.25;8.25;;;;;39.17;22.12;101729.28;5056711;28;45186;-79
2023/06/24 13:47:16;;;;;;;;;10.00;8.00;;;;;39.39;22.41;101728.84;5056042;28;45488;-76
2023/06/24 13:49:42;;;;;;;;;7.50;7.50;;;;;39.47;22.29;101725.69;5056676;28;45520;-77
2023/06/24 13:52:07;;;;;;;;;9.00;8.25;;;;;39.42;22.27;101731.16;5054563;28;45547;-76
2023/06/24 13:54:35;;;;;;;;;11.50;9.00;;;;;39.46;21.95;101726.78;5054632;28;46195;-77
2023/06/24 13:57:00;;;;;;;;;7.50;7.50;;;;;39.59;21.97;101723.78;5056014;28;45300;-76
2023/06/24 13:59:25;;;;;;;;;6.00;6.00;;;;;39.59;22.37;101706.94;5056495;28;45524;-76
2023/06/24 14:01:51;;;;;;;;;11.75;8.50;;;;;39.68;21.72;101708.31;5056114;28;45518;-75
2023/06/24 14:04:16;;;;;;;;;10.50;8.00;;;;;39.68;21.81;101711.97;5037635;28;56951;-76
2023/06/24 14:06:43;;;;;;;;;10.50;8.25;;;;;39.72;21.50;101710.41;5055924;28;45347;-76
2023/06/24 14:09:08;;;;;;;;;10.00;8.50;;;;;39.70;21.35;101706.13;5056181;28;45382;-75
2023/06/24 14:11:34;;;;;;;;;9.75;9.25;;;;;39.78;21.79;101702.97;5055892;28;45487;-74
2023/06/24 14:13:59;;;;;;;;;5.50;4.50;;;;;40.00;22.13;101695.72;5056256;28;45656;-77
2023/06/24 14:16:24;;;;;;;;;7.25;6.00;;;;;39.99;21.40;101691.19;5056128;28;45427;-77
2023/06/24 14:18:50;;;;;;;;;9.25;9.25;;;;;40.06;21.52;101694.75;5056275;28;45555;-76
2023/06/24 14:21:15;;;;;;;;;7.25;7.25;;;;;40.14;20.87;101693.53;5037600;28;45425;-77
2023/06/24 14:23:41;;;;;;;;;8.25;8.25;;;;;40.21;20.92;101680.22;5055864;28;46007;-77
2023/06/24 14:26:07;;;;;;;;;7.50;6.25;;;;;40.28;21.53;101674.50;5055689;28;45409;-76
2023/06/24 14:28:32;;;;;;;;;10.75;9.50;;;;;40.31;21.01;101671.22;5054105;28;45503;-77
2023/06/24 14:30:57;;;;;;;;;10.75;6.75;;;;;40.48;21.18;101674.16;5037066;28;46041;-77
2023/06/24 14:33:23;;;;;;;;;7.25;6.50;;;;;40.61;21.03;101666.28;5055966;28;46105;-76
2023/06/24 14:35:48;;;;;;;;;8.75;7.50;;;;;40.78;20.95;101660.78;5055926;28;45330;-77
2023/06/24 14:38:14;;;;;;;;;8.50;8.50;;;;;40.98;20.72;101666.00;5055586;28;45297;-76
2023/06/24 14:40:39;;;;;;;;;9.25;8.00;;;;;41.03;20.32;101666.09;5055523;28;45294;-75
2023/06/24 14:43:04;;;;;;;;;8.50;8.50;;;;;40.98;20.34;101644.34;5055832;28;45432;-75
2023/06/24 14:45:30;;;;;;;;;7.75;7.75;;;;;41.04;19.93;101656.53;5055516;28;45305;-75
2023/06/24 14:47:56;;;;;;;;;7.25;7.25;;;;;41.10;20.90;101647.97;5055763;28;45766;-77
2023/06/24 14:50:22;;;;;;;;;7.50;7.50;;;;;41.15;20.14;101648.09;5055550;28;45220;-76
2023/06/24 14:52:47;;;;;;;;;7.50;7.50;;;;;41.28;20.04;101643.25;5035650;28;46031;-76
2023/06/24 14:55:13;;;;;;;;;7.50;7.25;;;;;41.46;20.17;101649.53;5055299;28;47253;-77
2023/06/24 14:57:38;;;;;;;;;10.25;8.00;;;;;41.52;19.58;101642.91;5037401;28;45593;-76
2023/06/24 15:00:06;;;;;;;;;7.75;7.50;;;;;41.58;19.79;101645.84;5055247;28;45511;-75
2023/06/24 15:02:31;;;;;;;;;8.00;8.00;;;;;41.71;19.47;101646.34;5055163;28;45511;-77
2023/06/24 15:04:56;;;;;;;;;6.75;6.75;;;;;41.78;19.50;101632.94;5055011;28;45442;-76
2023/06/24 15:07:22;;;;;;;;;9.25;8.00;;;;;41.88;19.41;101629.44;5055006;28;46445;-78
2023/06/24 15:09:47;;;;;;;;;10.25;7.50;;;;;41.89;18.77;101623.56;5055020;28;45438;-77
2023/06/24 15:12:12;;;;;;;;;8.50;8.50;;;;;41.95;19.59;101638.59;5054314;28;48239;-78
2023/06/24 15:14:38;;;;;;;;;8.00;8.00;;;;;42.06;19.08;101631.19;5055069;28;45383;-77
2023/06/24 15:17:03;;;;;;;;;9.00;9.00;;;;;42.16;18.90;101625.69;5055680;28;45358;-77
2023/06/24 15:19:29;;;;;;;;;7.25;6.75;;;;;42.25;18.71;101616.53;5055095;28;45592;-77
2023/06/24 15:21:54;;;;;;;;;7.25;7.25;;;;;42.19;19.36;101626.06;5055071;28;45645;-76
2023/06/24 15:24:19;;;;;;;;;10.00;8.00;;;;;42.20;18.69;101622.09;5054731;28;45359;-76
2023/06/24 15:26:45;;;;;;;;;7.75;7.75;;;;;42.20;19.39;101616.44;5054381;28;45350;-76
2023/06/24 15:29:10;;;;;;;;;7.50;7.25;;;;;42.26;18.46;101614.59;5054339;28;45386;-76
2023/06/24 15:31:36;;;;;;;;;8.75;8.00;;;;;42.21;18.82;101604.06;5054650;28;46047;-74
2023/06/24 15:34:01;;;;;;;;;7.50;7.00;;;;;42.28;18.17;101624.47;5055002;28;45524;-73
2023/06/24 15:36:28;;;;;;;;;9.50;8.00;;;;;42.29;19.27;101609.25;5036978;28;45490;-77
2023/06/24 15:38:54;;;;;;;;;11.25;8.25;;;;;42.31;18.60;101603.38;5054560;28;45321;-78
2023/06/24 15:41:20;;;;;;;;;6.50;6.25;;;;;42.36;18.87;101609.13;5054409;28;46016;-79
2023/06/24 15:43:45;;;;;;;;;5.00;5.00;;;;;42.42;18.58;101602.44;5054669;28;45331;-76
2023/06/24 15:46:10;;;;;;;;;4.25;4.25;;;;;42.53;19.15;101600.63;5054762;28;45312;-75
2023/06/24 15:48:38;;;;;;;;;10.75;7.00;;;;;42.69;18.84;101590.38;5054525;28;45237;-77
2023/06/24 15:51:04;;;;;;;;;8.50;7.50;;;;;42.85;18.70;101593.16;5054579;28;46379;-77